createdAt,value
2024-03-24T00:00:34.077Z,52.98
2024-03-24T00:01:34.217Z,52.96
2024-03-24T00:02:34.408Z,52.76
2024-03-24T00:03:34.585Z,53.53
2024-03-24T00:04:34.790Z,53.36
2024-03-24T00:05:34.965Z,53.55
2024-03-24T00:06:35.115Z,53.43
2024-03-24T00:07:35.272Z,53.26
2024-03-24T00:08:35.427Z,54.02
2024-03-24T00:09:35.598Z,53.64
2024-03-24T00:10:35.792Z,53.86
2024-03-24T00:11:35.971Z,54.14
2024-03-24T00:12:36.193Z,53.93
2024-03-24T00:13:36.349Z,53.83
2024-03-24T00:14:36.479Z,54.32
2024-03-24T00:15:36.627Z,54.76
2024-03-24T00:16:36.805Z,55.35
2024-03-24T00:17:37.041Z,55.62
2024-03-24T00:18:37.143Z,55.15
2024-03-24T00:19:37.299Z,55.32
2024-03-24T00:20:37.477Z,55.88
2024-03-24T00:21:37.634Z,55.91
2024-03-24T00:22:37.796Z,55.59
2024-03-24T00:23:37.932Z,55.68
2024-03-24T00:24:38.118Z,55.31
2024-03-24T00:25:38.325Z,55.22
2024-03-24T00:26:38.521Z,55.05
2024-03-24T00:27:38.770Z,54.96
2024-03-24T00:28:38.913Z,55.80
2024-03-24T00:29:39.099Z,56.02
2024-03-24T00:30:39.285Z,56.25
2024-03-24T00:31:39.444Z,56.12
2024-03-24T00:32:39.631Z,56.83
2024-03-24T00:33:39.821Z,56.91
2024-03-24T00:34:39.999Z,57.26
2024-03-24T00:35:40.186Z,56.62
2024-03-24T00:36:40.338Z,56.03
2024-03-24T00:37:40.558Z,56.40
2024-03-24T00:38:40.715Z,55.13
2024-03-24T00:39:43.361Z,55.09
2024-03-24T00:40:41.036Z,55.36
2024-03-24T00:41:41.209Z,56.14
2024-03-24T00:42:41.357Z,56.16
2024-03-24T00:43:41.471Z,57.05
2024-03-24T00:44:42.687Z,57.11
2024-03-24T00:45:41.751Z,56.28
2024-03-24T00:46:41.899Z,56.16
2024-03-24T00:47:42.058Z,55.79
2024-03-24T00:48:42.169Z,54.75
2024-03-24T00:49:42.320Z,54.78
2024-03-24T00:50:42.468Z,53.46
2024-03-24T00:51:42.598Z,53.90
2024-03-24T00:52:42.761Z,54.86
2024-03-24T00:53:42.877Z,54.84
2024-03-24T00:54:43.027Z,54.68
2024-03-24T00:55:43.187Z,54.32
2024-03-24T00:56:43.354Z,55.06
2024-03-24T00:57:43.457Z,54.36
2024-03-24T00:58:43.604Z,54.11
2024-03-24T00:59:43.767Z,54.44
2024-03-24T01:00:43.889Z,54.39
2024-03-24T01:01:44.041Z,55.06
2024-03-24T01:02:44.172Z,55.41
2024-03-24T01:03:44.315Z,56.32
2024-03-24T01:04:44.468Z,55.85
2024-03-24T01:05:44.633Z,55.77
2024-03-24T01:06:44.776Z,55.28
2024-03-24T01:07:44.963Z,54.88
2024-03-24T01:08:45.097Z,55.37
2024-03-24T01:09:45.314Z,55.26
2024-03-24T01:10:45.491Z,55.42
2024-03-24T01:11:45.707Z,56.46
2024-03-24T01:12:45.917Z,55.67
2024-03-24T01:13:46.126Z,55.66
2024-03-24T01:14:46.346Z,55.67
2024-03-24T01:15:46.557Z,56.07
2024-03-24T01:16:46.709Z,56.18
2024-03-24T01:17:46.933Z,55.95
2024-03-24T01:18:47.091Z,55.47
2024-03-24T01:19:47.246Z,55.73
2024-03-24T01:20:47.422Z,55.83
2024-03-24T01:21:47.586Z,56.45
2024-03-24T01:22:47.798Z,56.76
2024-03-24T01:23:47.982Z,56.27
2024-03-24T01:24:48.148Z,56.86
2024-03-24T01:25:48.359Z,56.98
2024-03-24T01:26:48.573Z,56.62
2024-03-24T01:27:48.766Z,57.01
2024-03-24T01:28:48.961Z,57.26
2024-03-24T01:29:49.174Z,57.89
2024-03-24T01:30:49.423Z,58.25
2024-03-24T01:31:49.640Z,57.74
2024-03-24T01:32:49.845Z,58.10
2024-03-24T01:33:50.065Z,58.71
2024-03-24T01:34:50.290Z,57.83
2024-03-24T01:35:50.427Z,58.03
2024-03-24T01:36:50.635Z,57.88
2024-03-24T01:37:50.849Z,58.65
2024-03-24T01:38:51.014Z,58.04
2024-03-24T01:39:51.240Z,58.26
2024-03-24T01:40:51.453Z,58.33
2024-03-24T01:41:51.592Z,58.66
2024-03-24T01:42:51.808Z,58.05
2024-03-24T01:43:52.007Z,57.65
2024-03-24T01:44:52.235Z,57.58
2024-03-24T01:45:52.443Z,57.63
2024-03-24T01:46:52.666Z,57.68
2024-03-24T01:47:52.873Z,57.29
2024-03-24T01:48:53.056Z,56.64
2024-03-24T01:49:53.285Z,56.74
2024-03-24T01:50:53.469Z,57.53
2024-03-24T01:51:53.665Z,57.71
2024-03-24T01:52:53.925Z,57.11
2024-03-24T01:53:54.198Z,58.25
2024-03-24T01:54:54.370Z,58.24
2024-03-24T01:55:54.558Z,57.82
2024-03-24T01:56:54.730Z,56.58
2024-03-24T01:57:54.999Z,57.15
2024-03-24T01:58:55.099Z,56.53
2024-03-24T01:59:55.258Z,56.51
2024-03-24T02:00:55.476Z,56.15
2024-03-24T02:01:55.628Z,56.86
2024-03-24T02:02:55.810Z,56.73
2024-03-24T02:03:56.002Z,56.93
2024-03-24T02:04:56.179Z,56.42
2024-03-24T02:05:56.402Z,56.46
2024-03-24T02:06:56.669Z,56.45
2024-03-24T02:07:56.826Z,56.86
2024-03-24T02:08:57.023Z,57.14
2024-03-24T02:09:57.244Z,56.98
2024-03-24T02:10:57.421Z,57.11
2024-03-24T02:11:57.607Z,57.83
2024-03-24T02:12:57.809Z,57.23
2024-03-24T02:13:58.030Z,57.28
2024-03-24T02:14:58.273Z,56.90
2024-03-24T02:15:58.485Z,57.16
2024-03-24T02:16:58.699Z,56.11
2024-03-24T02:18:00.662Z,56.51
2024-03-24T02:18:59.087Z,56.33
2024-03-24T02:19:59.238Z,56.76
2024-03-24T02:20:59.441Z,56.21
2024-03-24T02:21:59.673Z,56.37
2024-03-24T02:22:59.941Z,56.84
2024-03-24T02:23:59.957Z,57.15
2024-03-24T02:25:00.214Z,57.29
2024-03-24T02:26:00.315Z,57.16
2024-03-24T02:27:00.529Z,57.11
2024-03-24T02:28:00.748Z,57.24
2024-03-24T02:29:00.896Z,57.72
2024-03-24T02:30:01.149Z,57.59
2024-03-24T02:31:01.318Z,58.46
2024-03-24T02:32:01.478Z,58.09
2024-03-24T02:33:01.723Z,58.00
2024-03-24T02:34:01.881Z,57.81
2024-03-24T02:35:02.060Z,58.26
2024-03-24T02:36:02.315Z,58.41
2024-03-24T02:37:02.424Z,58.49
2024-03-24T02:38:02.612Z,58.29
2024-03-24T02:39:02.761Z,58.84
2024-03-24T02:40:02.950Z,58.04
2024-03-24T02:41:03.132Z,58.36
2024-03-24T02:42:03.340Z,58.24
2024-03-24T02:43:03.496Z,58.14
2024-03-24T02:44:03.688Z,58.25
2024-03-24T02:45:03.871Z,58.08
2024-03-24T02:46:04.080Z,58.28
2024-03-24T02:47:04.310Z,58.51
2024-03-24T02:48:04.443Z,57.94
2024-03-24T02:49:04.619Z,58.53
2024-03-24T02:50:04.781Z,58.09
2024-03-24T02:51:05.011Z,57.93
2024-03-24T02:52:05.177Z,58.07
2024-03-24T02:53:05.331Z,58.02
2024-03-24T02:54:05.487Z,58.62
2024-03-24T02:55:05.673Z,58.43
2024-03-24T02:56:05.839Z,57.30
2024-03-24T02:57:06.023Z,57.04
2024-03-24T02:58:07.300Z,56.01
2024-03-24T02:59:06.368Z,55.56
2024-03-24T03:00:07.461Z,54.81
2024-03-24T03:01:06.746Z,54.75
2024-03-24T03:02:06.909Z,54.61
2024-03-24T03:03:07.119Z,55.04
2024-03-24T03:04:07.295Z,55.28
2024-03-24T03:05:07.504Z,55.29
2024-03-24T03:06:07.714Z,55.36
2024-03-24T03:07:08.019Z,55.30
2024-03-24T03:08:08.165Z,55.42
2024-03-24T03:09:08.340Z,55.34
2024-03-24T03:10:10.328Z,55.24
2024-03-24T03:11:08.698Z,54.85
2024-03-24T03:12:08.871Z,54.15
2024-03-24T03:13:09.044Z,53.86
2024-03-24T03:14:09.199Z,53.87
2024-03-24T03:15:09.341Z,53.56
2024-03-24T03:16:09.529Z,53.54
2024-03-24T03:17:09.651Z,53.27
2024-03-24T03:18:09.827Z,53.69
2024-03-24T03:19:10.004Z,54.74
2024-03-24T03:20:10.139Z,53.95
2024-03-24T03:21:10.322Z,54.15
2024-03-24T03:22:10.571Z,54.35
2024-03-24T03:23:10.737Z,55.63
2024-03-24T03:24:10.938Z,55.32
2024-03-24T03:25:11.136Z,55.89
2024-03-24T03:26:11.335Z,54.80
2024-03-24T03:27:11.500Z,54.84
2024-03-24T03:28:11.674Z,54.79
2024-03-24T03:29:11.854Z,54.60
2024-03-24T03:30:12.000Z,56.24
2024-03-24T03:31:12.193Z,56.29
2024-03-24T03:32:12.341Z,56.18
2024-03-24T03:33:12.588Z,56.18
2024-03-24T03:34:12.767Z,56.47
2024-03-24T03:35:12.928Z,56.78
2024-03-24T03:36:13.126Z,56.84
2024-03-24T03:37:13.385Z,57.33
2024-03-24T03:38:13.564Z,58.00
2024-03-24T03:39:13.774Z,57.82
2024-03-24T03:40:14.061Z,57.92
2024-03-24T03:41:14.250Z,58.53
2024-03-24T03:42:14.461Z,57.77
2024-03-24T03:43:14.639Z,57.97
2024-03-24T03:44:14.830Z,57.80
2024-03-24T03:45:15.039Z,57.46
2024-03-24T03:46:15.364Z,56.85
2024-03-24T03:47:15.441Z,56.91
2024-03-24T03:48:15.681Z,56.72
2024-03-24T03:49:15.891Z,57.18
2024-03-24T03:50:16.051Z,57.07
2024-03-24T03:51:16.270Z,56.95
2024-03-24T03:52:16.488Z,56.83
2024-03-24T03:53:16.689Z,57.25
2024-03-24T03:54:16.891Z,57.36
2024-03-24T03:55:17.103Z,56.95
2024-03-24T03:56:17.259Z,56.29
2024-03-24T03:57:17.458Z,56.19
2024-03-24T03:58:17.678Z,56.50
2024-03-24T03:59:17.871Z,56.68
2024-03-24T04:00:18.053Z,56.61
2024-03-24T04:01:18.258Z,56.45
2024-03-24T04:02:18.472Z,56.19
2024-03-24T04:03:18.724Z,56.94
2024-03-24T04:04:18.867Z,56.47
2024-03-24T04:05:19.106Z,56.45
2024-03-24T04:06:19.287Z,56.79
2024-03-24T04:07:19.511Z,56.49
2024-03-24T04:08:19.656Z,55.88
2024-03-24T04:09:19.853Z,55.69
2024-03-24T04:10:20.031Z,55.82
2024-03-24T04:11:20.216Z,56.15
2024-03-24T04:12:20.410Z,56.61
2024-03-24T04:13:20.593Z,56.41
2024-03-24T04:14:20.827Z,56.37
2024-03-24T04:15:21.033Z,56.66
2024-03-24T04:16:21.253Z,55.87
2024-03-24T04:17:21.476Z,56.39
2024-03-24T04:18:21.660Z,55.26
2024-03-24T04:19:21.858Z,55.27
2024-03-24T04:20:22.032Z,55.31
2024-03-24T04:21:22.203Z,55.69
2024-03-24T04:22:22.428Z,55.45
2024-03-24T04:23:22.605Z,55.83
2024-03-24T04:24:22.801Z,56.44
2024-03-24T04:25:23.018Z,56.40
2024-03-24T04:26:23.195Z,56.64
2024-03-24T04:27:23.404Z,57.03
2024-03-24T04:28:23.618Z,56.69
2024-03-24T04:29:23.832Z,56.81
2024-03-24T04:30:24.016Z,56.99
2024-03-24T04:31:24.258Z,57.26
2024-03-24T04:32:24.454Z,56.77
2024-03-24T04:33:24.648Z,57.32
2024-03-24T04:34:24.788Z,57.38
2024-03-24T04:35:24.984Z,57.37
2024-03-24T04:36:25.202Z,57.55
2024-03-24T04:37:25.428Z,58.06
2024-03-24T04:38:25.712Z,58.03
2024-03-24T04:39:25.836Z,58.05
2024-03-24T04:40:26.023Z,58.25
2024-03-24T04:41:26.202Z,58.09
2024-03-24T04:42:26.376Z,58.34
2024-03-24T04:43:26.530Z,58.00
2024-03-24T04:44:26.694Z,57.44
2024-03-24T04:45:26.886Z,57.67
2024-03-24T04:46:27.062Z,57.89
2024-03-24T04:47:27.315Z,57.78
2024-03-24T04:48:27.514Z,57.41
2024-03-24T04:49:27.586Z,57.08
2024-03-24T04:50:27.762Z,57.01
2024-03-24T04:51:27.947Z,56.54
2024-03-24T04:52:28.195Z,57.03
2024-03-24T04:53:28.366Z,56.89
2024-03-24T04:54:28.598Z,57.13
2024-03-24T04:55:28.863Z,57.40
2024-03-24T04:56:29.080Z,57.79
2024-03-24T04:57:29.323Z,57.29
2024-03-24T04:58:29.560Z,56.97
2024-03-24T04:59:29.761Z,57.03
2024-03-24T05:00:30.106Z,57.19
2024-03-24T05:01:30.172Z,56.74
2024-03-24T05:02:30.303Z,56.22
2024-03-24T05:03:30.504Z,56.05
2024-03-24T05:04:30.701Z,56.28
2024-03-24T05:05:30.882Z,56.37
2024-03-24T05:06:31.094Z,56.78
2024-03-24T05:07:31.307Z,55.85
2024-03-24T05:08:31.535Z,56.20
2024-03-24T05:09:31.720Z,55.71
2024-03-24T05:10:31.930Z,56.33
2024-03-24T05:11:32.188Z,56.63
2024-03-24T05:12:32.417Z,56.60
2024-03-24T05:13:32.622Z,57.05
2024-03-24T05:14:32.846Z,56.70
2024-03-24T05:15:33.056Z,56.91
2024-03-24T05:16:33.242Z,56.34
2024-03-24T05:17:40.795Z,56.12
2024-03-24T05:18:40.804Z,56.57
2024-03-24T05:19:40.807Z,56.62
2024-03-24T05:20:40.855Z,56.71
2024-03-24T05:21:40.854Z,56.92
2024-03-24T05:22:40.876Z,57.09
2024-03-24T05:23:40.935Z,57.03
2024-03-24T05:24:40.940Z,57.17
2024-03-24T05:25:40.944Z,57.58
2024-03-24T05:26:40.964Z,57.94
2024-03-24T05:27:40.982Z,58.23
2024-03-24T05:28:50.214Z,58.34
2024-03-24T05:29:42.052Z,58.09
2024-03-24T05:30:41.038Z,58.15
2024-03-24T05:31:41.089Z,58.71
2024-03-24T05:32:41.103Z,58.43
2024-03-24T05:33:41.118Z,58.69
2024-03-24T05:34:41.117Z,58.03
2024-03-24T05:35:41.139Z,58.28
2024-03-24T05:36:41.141Z,57.91
2024-03-24T05:37:41.197Z,57.52
2024-03-24T05:38:41.214Z,57.73
2024-03-24T05:39:41.226Z,58.26
2024-03-24T05:40:41.266Z,58.08
2024-03-24T05:41:41.283Z,58.22
2024-03-24T05:42:41.309Z,58.11
2024-03-24T05:43:41.337Z,58.27
2024-03-24T05:44:41.409Z,58.38
2024-03-24T05:45:41.506Z,58.39
2024-03-24T05:46:41.545Z,58.59
2024-03-24T05:47:41.620Z,59.14
2024-03-24T05:48:41.685Z,58.40
2024-03-24T05:49:41.738Z,58.48
2024-03-24T05:50:41.780Z,58.18
2024-03-24T05:51:41.856Z,57.48
2024-03-24T05:52:41.919Z,57.81
2024-03-24T05:53:41.987Z,57.72
2024-03-24T05:54:42.027Z,58.10
2024-03-24T05:55:42.074Z,57.95
2024-03-24T05:56:42.101Z,57.61
2024-03-24T05:57:42.140Z,56.92
2024-03-24T05:58:42.198Z,56.40
2024-03-24T05:59:42.229Z,56.30
2024-03-24T06:00:42.333Z,57.23
2024-03-24T06:01:44.701Z,56.17
2024-03-24T06:02:42.416Z,55.87
2024-03-24T06:03:42.447Z,56.65
2024-03-24T06:04:42.458Z,55.87
2024-03-24T06:05:42.457Z,55.76
2024-03-24T06:06:42.529Z,55.30
2024-03-24T06:07:42.505Z,55.28
2024-03-24T06:08:42.523Z,54.59
2024-03-24T06:09:42.548Z,55.28
2024-03-24T06:10:42.559Z,55.08
2024-03-24T06:11:42.561Z,55.04
2024-03-24T06:12:42.563Z,55.28
2024-03-24T06:13:42.572Z,54.91
2024-03-24T06:14:42.598Z,54.71
2024-03-24T06:15:42.616Z,55.56
2024-03-24T06:16:42.615Z,56.78
2024-03-24T06:17:42.648Z,57.02
2024-03-24T06:18:42.655Z,57.20
2024-03-24T06:19:42.666Z,56.66
2024-03-24T06:20:42.698Z,57.45
2024-03-24T06:21:42.720Z,56.72
2024-03-24T06:22:42.735Z,56.31
2024-03-24T06:23:42.733Z,56.18
2024-03-24T06:24:42.745Z,56.54
2024-03-24T06:25:42.755Z,56.81
2024-03-24T06:26:42.785Z,56.44
2024-03-24T06:27:42.761Z,56.47
2024-03-24T06:28:42.787Z,56.86
2024-03-24T06:29:42.795Z,56.46
2024-03-24T06:30:42.802Z,56.29
2024-03-24T06:31:44.637Z,56.74
2024-03-24T06:32:42.813Z,56.46
2024-03-24T06:33:42.814Z,55.52
2024-03-24T06:34:42.814Z,55.79
2024-03-24T06:35:42.836Z,56.82
2024-03-24T06:36:42.835Z,56.80
2024-03-24T06:37:42.848Z,56.23
2024-03-24T06:38:42.858Z,56.05
2024-03-24T06:39:42.864Z,55.30
2024-03-24T06:40:42.855Z,55.39
2024-03-24T06:41:42.873Z,55.88
2024-03-24T06:42:42.877Z,56.11
2024-03-24T06:43:42.887Z,55.41
2024-03-24T06:44:42.890Z,56.01
2024-03-24T06:45:42.891Z,56.71
2024-03-24T06:46:42.916Z,56.49
2024-03-24T06:47:42.932Z,55.66
2024-03-24T06:48:42.960Z,54.83
2024-03-24T06:49:42.959Z,54.38
2024-03-24T06:50:42.970Z,55.22
2024-03-24T06:51:42.994Z,55.59
2024-03-24T06:52:43.004Z,54.98
2024-03-24T06:53:43.005Z,56.63
2024-03-24T06:54:43.013Z,55.56
2024-03-24T06:55:43.009Z,56.12
2024-03-24T06:56:43.032Z,56.10
2024-03-24T06:57:43.029Z,56.21
2024-03-24T06:58:43.074Z,56.63
2024-03-24T06:59:43.091Z,56.96
2024-03-24T07:00:43.054Z,57.32
2024-03-24T07:01:43.109Z,57.50
2024-03-24T07:02:43.125Z,57.89
2024-03-24T07:03:43.157Z,57.83
2024-03-24T07:04:43.167Z,57.21
2024-03-24T07:05:43.163Z,57.77
2024-03-24T07:06:43.209Z,57.11
2024-03-24T07:07:43.189Z,56.88
2024-03-24T07:08:43.226Z,56.35
2024-03-24T07:09:43.220Z,57.30
2024-03-24T07:10:43.250Z,56.65
2024-03-24T07:11:43.214Z,57.13
2024-03-24T07:12:43.279Z,56.93
2024-03-24T07:13:43.287Z,57.83
2024-03-24T07:14:43.297Z,57.51
2024-03-24T07:15:43.304Z,57.01
2024-03-24T07:16:43.305Z,56.51
2024-03-24T07:17:43.366Z,57.18
2024-03-24T07:18:43.367Z,57.07
2024-03-24T07:19:43.398Z,57.75
2024-03-24T07:20:43.403Z,57.94
2024-03-24T07:21:43.402Z,57.64
2024-03-24T07:22:43.461Z,57.87
2024-03-24T07:23:43.433Z,56.07
2024-03-24T07:24:43.460Z,55.59
2024-03-24T07:25:43.467Z,55.34
2024-03-24T07:26:43.501Z,55.90
2024-03-24T07:27:43.499Z,55.87
2024-03-24T07:28:43.544Z,55.84
2024-03-24T07:29:43.571Z,55.80
2024-03-24T07:30:43.572Z,56.03
2024-03-24T07:31:43.621Z,56.89
2024-03-24T07:32:43.635Z,55.55
2024-03-24T07:33:43.684Z,55.34
2024-03-24T07:34:43.716Z,55.59
2024-03-24T07:35:43.726Z,56.34
2024-03-24T07:36:43.787Z,55.61
2024-03-24T07:37:43.835Z,55.68
2024-03-24T07:38:43.936Z,56.56
2024-03-24T07:39:43.977Z,56.43
2024-03-24T07:40:44.060Z,57.11
2024-03-24T07:41:46.167Z,55.67
2024-03-24T07:42:44.783Z,55.75
2024-03-24T07:43:44.123Z,55.94
2024-03-24T07:44:44.089Z,55.83
2024-03-24T07:45:44.120Z,55.11
2024-03-24T07:46:44.119Z,55.76
2024-03-24T07:47:44.153Z,56.14
2024-03-24T07:48:47.413Z,55.69
2024-03-24T07:49:45.123Z,55.74
2024-03-24T07:50:44.127Z,56.00
2024-03-24T07:51:44.149Z,55.43
2024-03-24T07:52:44.114Z,55.58
2024-03-24T07:53:44.167Z,54.78
2024-03-24T07:54:44.139Z,53.58
2024-03-24T07:55:44.148Z,53.40
2024-03-24T07:56:44.166Z,53.53
2024-03-24T07:57:44.177Z,54.15
2024-03-24T07:58:44.252Z,54.08
2024-03-24T07:59:44.328Z,54.72
2024-03-24T08:00:44.386Z,54.84
2024-03-24T08:01:44.473Z,56.28
2024-03-24T08:02:44.570Z,55.88
2024-03-24T08:03:44.618Z,54.88
2024-03-24T08:04:44.691Z,55.74
2024-03-24T08:05:44.780Z,55.94
2024-03-24T08:06:44.862Z,55.46
2024-03-24T08:07:44.947Z,54.64
2024-03-24T08:08:45.075Z,55.17
2024-03-24T08:09:45.120Z,55.43
2024-03-24T08:10:45.230Z,56.48
2024-03-24T08:11:45.278Z,55.60
2024-03-24T08:12:45.318Z,55.91
2024-03-24T08:13:45.393Z,55.47
2024-03-24T08:14:45.393Z,56.08
2024-03-24T08:15:45.479Z,55.39
2024-03-24T08:16:45.546Z,55.24
2024-03-24T08:17:45.618Z,55.86
2024-03-24T08:18:45.673Z,54.73
2024-03-24T08:19:45.732Z,55.28
2024-03-24T08:20:45.819Z,54.60
2024-03-24T08:21:45.880Z,54.46
2024-03-24T08:22:45.931Z,54.94
2024-03-24T08:23:45.963Z,56.86
2024-03-24T08:24:45.992Z,55.92
2024-03-24T08:25:46.015Z,55.73
2024-03-24T08:26:46.047Z,56.07
2024-03-24T08:27:46.075Z,54.53
2024-03-24T08:28:46.108Z,54.74
2024-03-24T08:29:46.203Z,54.96
2024-03-24T08:30:46.252Z,55.03
2024-03-24T08:31:46.322Z,54.87
2024-03-24T08:32:46.368Z,54.37
2024-03-24T08:33:46.437Z,54.89
2024-03-24T08:34:46.448Z,53.58
2024-03-24T08:35:46.499Z,53.85
2024-03-24T08:36:46.544Z,54.06
2024-03-24T08:37:46.547Z,53.90
2024-03-24T08:38:46.646Z,54.23
2024-03-24T08:39:46.668Z,55.81
2024-03-24T08:40:46.668Z,53.55
2024-03-24T08:41:46.689Z,53.74
2024-03-24T08:42:46.730Z,53.51
2024-03-24T08:43:46.775Z,53.62
2024-03-24T08:44:46.839Z,54.12
2024-03-24T08:45:46.908Z,53.59
2024-03-24T08:46:46.954Z,54.21
2024-03-24T08:47:47.005Z,54.06
2024-03-24T08:48:47.366Z,54.49
2024-03-24T08:49:47.066Z,54.86
2024-03-24T08:50:47.071Z,52.93
2024-03-24T08:51:47.153Z,53.22
2024-03-24T08:52:47.248Z,54.29
2024-03-24T08:53:47.560Z,55.09
2024-03-24T08:54:47.332Z,55.12
2024-03-24T08:55:47.375Z,55.53
2024-03-24T08:56:47.402Z,54.85
2024-03-24T08:57:47.392Z,54.92
2024-03-24T08:58:47.418Z,55.37
2024-03-24T08:59:47.464Z,53.93
2024-03-24T09:00:47.505Z,53.52
2024-03-24T09:01:47.535Z,53.40
2024-03-24T09:02:47.529Z,53.64
2024-03-24T09:03:47.535Z,54.07
2024-03-24T09:04:47.569Z,53.77
2024-03-24T09:05:47.739Z,53.86
2024-03-24T09:06:47.762Z,54.67
2024-03-24T09:07:47.814Z,53.94
2024-03-24T09:08:47.864Z,53.77
2024-03-24T09:09:47.940Z,53.96
2024-03-24T09:10:48.003Z,54.74
2024-03-24T09:11:48.076Z,55.27
2024-03-24T09:12:48.117Z,55.11
2024-03-24T09:13:48.211Z,54.20
2024-03-24T09:14:48.249Z,52.90
2024-03-24T09:15:48.256Z,53.82
2024-03-24T09:16:48.292Z,54.14
2024-03-24T09:17:48.288Z,54.56
2024-03-24T09:18:48.294Z,54.70
2024-03-24T09:19:48.361Z,55.45
2024-03-24T09:20:48.352Z,56.30
2024-03-24T09:21:48.362Z,56.31
2024-03-24T09:22:48.402Z,56.04
2024-03-24T09:23:48.449Z,56.06
2024-03-24T09:24:48.544Z,56.15
2024-03-24T09:25:48.641Z,56.03
2024-03-24T09:26:48.726Z,55.43
2024-03-24T09:27:48.789Z,55.24
2024-03-24T09:28:48.868Z,55.28
2024-03-24T09:29:48.935Z,55.92
2024-03-24T09:30:49.021Z,54.86
2024-03-24T09:31:49.105Z,55.92
2024-03-24T09:32:49.170Z,55.27
2024-03-24T09:33:49.213Z,56.03
2024-03-24T09:34:49.649Z,56.44
2024-03-24T09:35:49.280Z,57.34
2024-03-24T09:36:50.227Z,56.65
2024-03-24T09:37:49.388Z,56.58
2024-03-24T09:38:49.455Z,57.85
2024-03-24T09:39:49.513Z,57.60
2024-03-24T09:40:49.571Z,57.59
2024-03-24T09:41:49.599Z,57.66
2024-03-24T09:42:49.710Z,57.34
2024-03-24T09:43:49.762Z,56.94
2024-03-24T09:44:49.761Z,57.89
2024-03-24T09:45:49.774Z,58.38
2024-03-24T09:46:49.836Z,57.87
2024-03-24T09:47:49.929Z,56.92
2024-03-24T09:48:49.997Z,57.01
2024-03-24T09:49:50.047Z,58.05
2024-03-24T09:50:50.077Z,57.49
2024-03-24T09:51:50.129Z,57.49
2024-03-24T09:52:50.179Z,57.24
2024-03-24T09:53:50.238Z,57.54
2024-03-24T09:54:50.286Z,56.43
2024-03-24T09:55:50.292Z,56.06
2024-03-24T09:56:50.402Z,56.51
2024-03-24T09:57:57.052Z,55.79
2024-03-24T09:58:51.451Z,56.28
2024-03-24T09:59:50.482Z,56.08
2024-03-24T10:00:50.465Z,55.29
2024-03-24T10:01:50.485Z,55.68
2024-03-24T10:02:50.486Z,55.44
2024-03-24T10:03:50.518Z,55.96
2024-03-24T10:04:50.516Z,55.94
2024-03-24T10:05:50.516Z,57.23
2024-03-24T10:06:50.533Z,58.16
2024-03-24T10:07:50.596Z,57.02
2024-03-24T10:08:50.680Z,58.67
2024-03-24T10:09:50.611Z,58.22
2024-03-24T10:10:50.656Z,58.55
2024-03-24T10:11:50.668Z,56.59
2024-03-24T10:12:50.672Z,57.53
2024-03-24T10:13:50.683Z,57.92
2024-03-24T10:14:50.732Z,57.98
2024-03-24T10:15:50.754Z,57.73
2024-03-24T10:16:50.762Z,57.61
2024-03-24T10:17:50.829Z,57.26
2024-03-24T10:18:50.891Z,54.99
2024-03-24T10:19:50.978Z,57.05
2024-03-24T10:20:50.961Z,56.85
2024-03-24T10:21:51.039Z,55.52
2024-03-24T10:22:51.094Z,56.84
2024-03-24T10:23:51.128Z,56.61
2024-03-24T10:24:51.182Z,56.18
2024-03-24T10:25:51.231Z,56.03
2024-03-24T10:26:51.287Z,56.17
2024-03-24T10:27:51.319Z,57.03
2024-03-24T10:28:51.355Z,55.49
2024-03-24T10:29:51.380Z,55.43
2024-03-24T10:30:51.379Z,55.53
2024-03-24T10:31:53.245Z,56.59
2024-03-24T10:32:51.444Z,58.24
2024-03-24T10:33:51.450Z,57.77
2024-03-24T10:34:51.462Z,58.14
2024-03-24T10:35:51.480Z,58.77
2024-03-24T10:36:51.507Z,55.92
2024-03-24T10:37:51.570Z,54.95
2024-03-24T10:38:51.594Z,55.73
2024-03-24T10:39:51.692Z,56.56
2024-03-24T10:40:54.929Z,56.19
2024-03-24T10:41:51.705Z,54.22
2024-03-24T10:42:51.674Z,54.64
2024-03-24T10:43:51.696Z,55.21
2024-03-24T10:44:51.688Z,54.83
2024-03-24T10:45:51.685Z,53.07
2024-03-24T10:46:51.659Z,51.09
2024-03-24T10:47:51.633Z,51.62
2024-03-24T10:48:51.639Z,52.77
2024-03-24T10:49:51.624Z,52.82
2024-03-24T10:50:51.601Z,52.31
2024-03-24T10:51:51.626Z,53.48
2024-03-24T10:52:53.667Z,51.89
2024-03-24T10:53:51.574Z,51.14
2024-03-24T10:54:51.584Z,51.10
2024-03-24T10:55:51.595Z,52.30
2024-03-24T10:56:51.553Z,51.01
2024-03-24T10:57:51.555Z,50.50
2024-03-24T10:58:51.511Z,53.03
2024-03-24T10:59:51.531Z,50.29
2024-03-24T11:00:51.472Z,49.52
2024-03-24T11:01:51.481Z,50.61
2024-03-24T11:02:51.462Z,50.86
2024-03-24T11:03:51.442Z,49.81
2024-03-24T11:04:51.458Z,48.32
2024-03-24T11:05:51.410Z,50.05
2024-03-24T11:06:51.398Z,50.11
2024-03-24T11:07:51.379Z,48.44
2024-03-24T11:08:51.320Z,48.24
2024-03-24T11:09:51.334Z,48.80
2024-03-24T11:10:51.309Z,47.54
2024-03-24T11:11:51.294Z,47.43
2024-03-24T11:12:51.310Z,47.65
2024-03-24T11:13:51.278Z,47.86
2024-03-24T11:14:51.244Z,47.31
2024-03-24T11:15:51.218Z,47.92
2024-03-24T11:16:51.160Z,48.03
2024-03-24T11:17:51.170Z,47.20
2024-03-24T11:18:52.669Z,46.21
2024-03-24T11:19:51.096Z,45.31
2024-03-24T11:20:51.058Z,44.14
2024-03-24T11:21:51.003Z,45.44
2024-03-24T11:22:50.958Z,47.58
2024-03-24T11:23:50.917Z,45.61
2024-03-24T11:24:50.877Z,45.05
2024-03-24T11:25:50.826Z,43.93
2024-03-24T11:26:50.784Z,45.82
2024-03-24T11:27:50.688Z,43.08
2024-03-24T11:28:50.651Z,43.26
2024-03-24T11:29:52.568Z,41.48
2024-03-24T11:30:50.529Z,42.45
2024-03-24T11:31:50.464Z,42.35
2024-03-24T11:32:50.396Z,42.12
2024-03-24T11:33:50.333Z,41.79
2024-03-24T11:34:50.349Z,40.79
2024-03-24T11:35:50.232Z,42.50
2024-03-24T11:36:50.168Z,41.03
2024-03-24T11:37:50.077Z,41.98
2024-03-24T11:38:50.051Z,42.06
2024-03-24T11:39:49.992Z,41.84
2024-03-24T11:40:53.038Z,41.47
2024-03-24T11:41:49.869Z,40.60
2024-03-24T11:42:49.783Z,43.06
2024-03-24T11:43:49.721Z,40.77
2024-03-24T11:44:49.713Z,42.78
2024-03-24T11:45:49.633Z,42.10
2024-03-24T11:46:49.575Z,39.15
2024-03-24T11:47:49.493Z,37.86
2024-03-24T11:48:49.446Z,38.78
2024-03-24T11:49:49.484Z,37.98
2024-03-24T11:50:49.277Z,38.19
2024-03-24T11:51:49.227Z,37.79
2024-03-24T11:52:52.483Z,39.20
2024-03-24T11:53:49.075Z,39.11
2024-03-24T11:54:48.973Z,36.72
2024-03-24T11:55:49.012Z,37.65
2024-03-24T11:56:48.838Z,39.09
2024-03-24T11:57:48.791Z,36.49
2024-03-24T11:58:48.715Z,38.46
2024-03-24T11:59:48.656Z,38.00
2024-03-24T12:00:48.619Z,39.30
2024-03-24T12:01:48.513Z,37.85
2024-03-24T12:02:48.421Z,38.04
2024-03-24T12:03:48.363Z,36.49
2024-03-24T12:04:48.258Z,36.73
2024-03-24T12:05:48.194Z,36.28
2024-03-24T12:06:48.127Z,35.28
2024-03-24T12:07:48.045Z,37.48
2024-03-24T12:08:47.986Z,36.24
2024-03-24T12:09:47.889Z,36.76
2024-03-24T12:10:47.832Z,37.78
2024-03-24T12:11:47.734Z,36.16
2024-03-24T12:12:47.661Z,35.20
2024-03-24T12:13:47.596Z,36.06
2024-03-24T12:14:47.506Z,37.06
2024-03-24T12:15:47.440Z,36.12
2024-03-24T12:16:47.343Z,35.01
2024-03-24T12:17:47.253Z,36.94
2024-03-24T12:18:47.152Z,35.13
2024-03-24T12:19:47.091Z,34.02
2024-03-24T12:20:46.984Z,34.72
2024-03-24T12:21:46.905Z,34.89
2024-03-24T12:22:46.785Z,32.73
2024-03-24T12:23:46.708Z,33.34
2024-03-24T12:24:46.631Z,33.35
2024-03-24T12:25:46.509Z,34.14
2024-03-24T12:26:46.412Z,33.51
2024-03-24T12:27:46.319Z,32.42
2024-03-24T12:28:46.222Z,32.46
2024-03-24T12:29:46.116Z,31.61
2024-03-24T12:30:46.004Z,30.46
2024-03-24T12:31:45.901Z,29.85
2024-03-24T12:32:45.774Z,30.19
2024-03-24T12:33:45.672Z,29.87
2024-03-24T12:34:45.544Z,29.17
2024-03-24T12:35:45.443Z,27.65
2024-03-24T12:36:45.319Z,28.65
2024-03-24T12:37:45.236Z,26.23
2024-03-24T12:38:45.091Z,26.87
2024-03-24T12:39:44.989Z,30.74
2024-03-24T12:40:44.925Z,30.79
2024-03-24T12:41:44.869Z,30.32
2024-03-24T12:42:44.823Z,31.95
2024-03-24T12:43:44.752Z,28.45
2024-03-24T12:44:44.726Z,28.85
2024-03-24T12:45:44.701Z,29.42
2024-03-24T12:46:44.632Z,27.89
2024-03-24T12:47:44.615Z,29.21
2024-03-24T12:48:44.565Z,27.41
2024-03-24T12:49:58.183Z,29.27
2024-03-24T12:50:46.583Z,27.66
2024-03-24T12:51:44.332Z,28.63
2024-03-24T12:52:44.237Z,27.80
2024-03-24T12:53:44.156Z,27.98